sensor_id;sensor_type;location;lat;lon;timestamp;P1;durP1;ratioP1;P2;durP2;ratioP2
49488;SDS011;35382;51.484;11.476;2023-02-01T00:00:42;15.23;;;2.30;;
49488;SDS011;35382;51.484;11.476;2023-02-01T00:02:22;14.38;;;2.83;;
49488;SDS011;35382;51.484;11.476;2023-02-01T00:04:03;10.50;;;2.78;;
49488;SDS011;35382;51.484;11.476;2023-02-01T00:05:44;11.55;;;2.20;;
49488;SDS011;35382;51.484;11.476;2023-02-01T00:07:35;9.68;;;2.03;;
49488;SDS011;35382;51.484;11.476;2023-02-01T00:09:17;11.90;;;2.88;;
49488;SDS011;35382;51.484;11.476;2023-02-01T00:11:03;11.05;;;2.80;;
49488;SDS011;35382;51.484;11.476;2023-02-01T00:12:45;9.93;;;2.08;;
49488;SDS011;35382;51.484;11.476;2023-02-01T00:14:26;11.18;;;2.67;;
49488;SDS011;35382;51.484;11.476;2023-02-01T00:17:58;10.43;;;3.13;;
49488;SDS011;35382;51.484;11.476;2023-02-01T00:19:39;12.38;;;3.08;;
49488;SDS011;35382;51.484;11.476;2023-02-01T00:21:20;10.50;;;2.40;;
49488;SDS011;35382;51.484;11.476;2023-02-01T00:23:01;14.10;;;2.75;;
49488;SDS011;35382;51.484;11.476;2023-02-01T00:24:42;19.63;;;4.78;;
49488;SDS011;35382;51.484;11.476;2023-02-01T00:26:28;10.27;;;2.72;;
49488;SDS011;35382;51.484;11.476;2023-02-01T00:28:18;10.95;;;2.75;;
49488;SDS011;35382;51.484;11.476;2023-02-01T00:29:59;14.73;;;3.83;;
49488;SDS011;35382;51.484;11.476;2023-02-01T00:31:40;13.82;;;2.47;;
49488;SDS011;35382;51.484;11.476;2023-02-01T00:33:21;12.68;;;3.08;;
49488;SDS011;35382;51.484;11.476;2023-02-01T00:35:05;12.13;;;3.70;;
49488;SDS011;35382;51.484;11.476;2023-02-01T00:36:48;11.18;;;3.38;;
49488;SDS011;35382;51.484;11.476;2023-02-01T00:38:29;17.35;;;2.78;;
49488;SDS011;35382;51.484;11.476;2023-02-01T00:40:11;13.10;;;2.70;;
49488;SDS011;35382;51.484;11.476;2023-02-01T00:41:52;7.65;;;2.28;;
49488;SDS011;35382;51.484;11.476;2023-02-01T00:43:34;12.77;;;2.22;;
49488;SDS011;35382;51.484;11.476;2023-02-01T00:45:15;14.50;;;3.65;;
49488;SDS011;35382;51.484;11.476;2023-02-01T00:46:56;13.13;;;3.85;;
49488;SDS011;35382;51.484;11.476;2023-02-01T00:48:37;14.02;;;3.17;;
49488;SDS011;35382;51.484;11.476;2023-02-01T00:50:18;12.52;;;3.20;;
49488;SDS011;35382;51.484;11.476;2023-02-01T00:51:59;15.65;;;3.10;;
49488;SDS011;35382;51.484;11.476;2023-02-01T00:53:40;13.90;;;3.45;;
49488;SDS011;35382;51.484;11.476;2023-02-01T00:55:21;14.07;;;3.22;;
49488;SDS011;35382;51.484;11.476;2023-02-01T00:57:02;13.48;;;3.05;;
49488;SDS011;35382;51.484;11.476;2023-02-01T00:58:43;16.42;;;3.95;;
49488;SDS011;35382;51.484;11.476;2023-02-01T01:00:25;11.43;;;3.67;;
49488;SDS011;35382;51.484;11.476;2023-02-01T01:02:06;15.55;;;4.25;;
49488;SDS011;35382;51.484;11.476;2023-02-01T01:03:47;15.98;;;4.40;;
49488;SDS011;35382;51.484;11.476;2023-02-01T01:05:48;17.30;;;4.50;;
49488;SDS011;35382;51.484;11.476;2023-02-01T01:07:29;12.88;;;3.72;;
49488;SDS011;35382;51.484;11.476;2023-02-01T01:09:10;13.80;;;4.10;;
49488;SDS011;35382;51.484;11.476;2023-02-01T01:10:50;13.90;;;3.92;;
49488;SDS011;35382;51.484;11.476;2023-02-01T01:12:31;17.67;;;4.15;;
49488;SDS011;35382;51.484;11.476;2023-02-01T01:14:12;17.38;;;4.38;;
49488;SDS011;35382;51.484;11.476;2023-02-01T01:15:53;18.13;;;4.05;;
49488;SDS011;35382;51.484;11.476;2023-02-01T01:17:36;12.88;;;3.63;;
49488;SDS011;35382;51.484;11.476;2023-02-01T01:19:17;12.65;;;4.32;;
49488;SDS011;35382;51.484;11.476;2023-02-01T01:20:58;18.13;;;4.65;;
49488;SDS011;35382;51.484;11.476;2023-02-01T01:22:42;17.38;;;4.53;;
49488;SDS011;35382;51.484;11.476;2023-02-01T01:24:23;18.85;;;4.10;;
49488;SDS011;35382;51.484;11.476;2023-02-01T01:26:05;18.83;;;4.43;;
49488;SDS011;35382;51.484;11.476;2023-02-01T01:27:48;13.13;;;3.90;;
49488;SDS011;35382;51.484;11.476;2023-02-01T01:29:29;13.07;;;4.15;;
49488;SDS011;35382;51.484;11.476;2023-02-01T01:31:10;16.20;;;5.10;;
49488;SDS011;35382;51.484;11.476;2023-02-01T01:32:52;14.00;;;4.13;;
49488;SDS011;35382;51.484;11.476;2023-02-01T01:34:33;16.85;;;3.95;;
49488;SDS011;35382;51.484;11.476;2023-02-01T01:36:13;16.83;;;4.70;;
49488;SDS011;35382;51.484;11.476;2023-02-01T01:37:54;21.98;;;5.05;;
49488;SDS011;35382;51.484;11.476;2023-02-01T01:39:35;22.05;;;4.88;;
49488;SDS011;35382;51.484;11.476;2023-02-01T01:41:18;18.30;;;5.47;;
49488;SDS011;35382;51.484;11.476;2023-02-01T01:43:09;15.60;;;4.18;;
49488;SDS011;35382;51.484;11.476;2023-02-01T01:45:04;19.90;;;4.65;;
49488;SDS011;35382;51.484;11.476;2023-02-01T01:46:48;25.60;;;4.63;;
49488;SDS011;35382;51.484;11.476;2023-02-01T01:48:29;16.50;;;4.18;;
49488;SDS011;35382;51.484;11.476;2023-02-01T01:50:19;21.02;;;5.07;;
49488;SDS011;35382;51.484;11.476;2023-02-01T01:52:05;18.60;;;4.60;;
49488;SDS011;35382;51.484;11.476;2023-02-01T01:53:54;15.77;;;4.00;;
49488;SDS011;35382;51.484;11.476;2023-02-01T01:55:40;19.65;;;5.18;;
49488;SDS011;35382;51.484;11.476;2023-02-01T01:57:30;15.43;;;4.38;;
49488;SDS011;35382;51.484;11.476;2023-02-01T01:59:16;16.02;;;4.50;;
49488;SDS011;35382;51.484;11.476;2023-02-01T02:00:58;18.83;;;4.57;;
49488;SDS011;35382;51.484;11.476;2023-02-01T02:02:39;14.50;;;4.32;;
49488;SDS011;35382;51.484;11.476;2023-02-01T02:04:22;17.75;;;4.70;;
49488;SDS011;35382;51.484;11.476;2023-02-01T02:06:04;19.55;;;4.95;;
49488;SDS011;35382;51.484;11.476;2023-02-01T02:07:48;16.48;;;4.82;;
49488;SDS011;35382;51.484;11.476;2023-02-01T02:09:32;16.98;;;4.10;;
49488;SDS011;35382;51.484;11.476;2023-02-01T02:11:14;16.42;;;4.10;;
49488;SDS011;35382;51.484;11.476;2023-02-01T02:12:57;20.45;;;4.35;;
49488;SDS011;35382;51.484;11.476;2023-02-01T02:14:38;13.77;;;3.95;;
49488;SDS011;35382;51.484;11.476;2023-02-01T02:18:11;14.00;;;4.22;;
49488;SDS011;35382;51.484;11.476;2023-02-01T02:20:06;16.55;;;4.25;;
49488;SDS011;35382;51.484;11.476;2023-02-01T02:24:30;15.05;;;4.10;;
49488;SDS011;35382;51.484;11.476;2023-02-01T02:26:45;17.65;;;4.72;;
49488;SDS011;35382;51.484;11.476;2023-02-01T02:28:46;22.38;;;4.65;;
49488;SDS011;35382;51.484;11.476;2023-02-01T02:33:16;16.85;;;4.38;;
49488;SDS011;35382;51.484;11.476;2023-02-01T02:35:02;23.60;;;4.82;;
49488;SDS011;35382;51.484;11.476;2023-02-01T02:37:05;19.35;;;4.85;;
49488;SDS011;35382;51.484;11.476;2023-02-01T02:46:32;17.60;;;3.95;;
49488;SDS011;35382;51.484;11.476;2023-02-01T02:48:41;17.90;;;3.88;;
49488;SDS011;35382;51.484;11.476;2023-02-01T02:50:29;16.65;;;4.45;;
49488;SDS011;35382;51.484;11.476;2023-02-01T02:52:35;14.70;;;3.80;;
49488;SDS011;35382;51.484;11.476;2023-02-01T02:54:40;15.18;;;3.95;;
49488;SDS011;35382;51.484;11.476;2023-02-01T02:56:30;13.57;;;4.18;;
49488;SDS011;35382;51.484;11.476;2023-02-01T02:58:31;16.55;;;4.63;;
49488;SDS011;35382;51.484;11.476;2023-02-01T03:00:31;16.25;;;3.97;;
49488;SDS011;35382;51.484;11.476;2023-02-01T03:02:33;16.75;;;4.05;;
49488;SDS011;35382;51.484;11.476;2023-02-01T03:04:33;16.15;;;3.78;;
49488;SDS011;35382;51.484;11.476;2023-02-01T03:06:15;15.77;;;4.78;;
49488;SDS011;35382;51.484;11.476;2023-02-01T03:08:03;17.80;;;3.83;;
49488;SDS011;35382;51.484;11.476;2023-02-01T03:09:44;14.88;;;3.63;;
49488;SDS011;35382;51.484;11.476;2023-02-01T03:11:28;15.88;;;4.15;;
49488;SDS011;35382;51.484;11.476;2023-02-01T03:15:32;19.75;;;4.30;;
49488;SDS011;35382;51.484;11.476;2023-02-01T03:17:23;15.82;;;4.90;;
49488;SDS011;35382;51.484;11.476;2023-02-01T03:19:17;15.90;;;3.88;;
49488;SDS011;35382;51.484;11.476;2023-02-01T03:21:06;14.88;;;3.70;;
49488;SDS011;35382;51.484;11.476;2023-02-01T03:22:54;17.02;;;4.35;;
49488;SDS011;35382;51.484;11.476;2023-02-01T03:24:37;19.33;;;4.30;;
49488;SDS011;35382;51.484;11.476;2023-02-01T03:26:22;20.15;;;4.65;;
49488;SDS011;35382;51.484;11.476;2023-02-01T03:30:40;14.75;;;4.32;;
49488;SDS011;35382;51.484;11.476;2023-02-01T03:32:24;18.73;;;3.92;;
49488;SDS011;35382;51.484;11.476;2023-02-01T03:34:05;21.42;;;6.15;;
49488;SDS011;35382;51.484;11.476;2023-02-01T03:37:53;16.92;;;4.50;;
49488;SDS011;35382;51.484;11.476;2023-02-01T03:41:55;25.20;;;4.70;;
49488;SDS011;35382;51.484;11.476;2023-02-01T03:43:45;16.17;;;4.32;;
49488;SDS011;35382;51.484;11.476;2023-02-01T03:45:34;15.85;;;4.25;;
49488;SDS011;35382;51.484;11.476;2023-02-01T03:47:21;14.15;;;3.92;;
49488;SDS011;35382;51.484;11.476;2023-02-01T03:49:06;12.65;;;3.60;;
49488;SDS011;35382;51.484;11.476;2023-02-01T03:50:52;15.68;;;4.22;;
49488;SDS011;35382;51.484;11.476;2023-02-01T03:52:41;19.70;;;3.63;;
49488;SDS011;35382;51.484;11.476;2023-02-01T03:54:26;20.65;;;4.25;;
49488;SDS011;35382;51.484;11.476;2023-02-01T03:56:09;16.90;;;3.83;;
49488;SDS011;35382;51.484;11.476;2023-02-01T03:57:53;13.75;;;4.35;;
49488;SDS011;35382;51.484;11.476;2023-02-01T03:59:43;15.35;;;4.28;;
49488;SDS011;35382;51.484;11.476;2023-02-01T04:01:28;18.88;;;4.20;;
49488;SDS011;35382;51.484;11.476;2023-02-01T04:03:11;22.02;;;5.03;;
49488;SDS011;35382;51.484;11.476;2023-02-01T04:04:52;20.38;;;4.57;;
49488;SDS011;35382;51.484;11.476;2023-02-01T04:06:34;14.80;;;4.05;;
49488;SDS011;35382;51.484;11.476;2023-02-01T04:08:20;18.08;;;5.00;;
49488;SDS011;35382;51.484;11.476;2023-02-01T04:10:01;16.52;;;3.80;;
49488;SDS011;35382;51.484;11.476;2023-02-01T04:11:43;23.40;;;4.40;;
49488;SDS011;35382;51.484;11.476;2023-02-01T04:13:24;14.57;;;3.40;;
49488;SDS011;35382;51.484;11.476;2023-02-01T04:15:06;17.10;;;3.97;;
49488;SDS011;35382;51.484;11.476;2023-02-01T04:16:47;13.57;;;3.63;;
49488;SDS011;35382;51.484;11.476;2023-02-01T04:18:28;17.88;;;4.03;;
49488;SDS011;35382;51.484;11.476;2023-02-01T04:20:09;15.98;;;4.45;;
49488;SDS011;35382;51.484;11.476;2023-02-01T04:21:50;19.02;;;3.63;;
49488;SDS011;35382;51.484;11.476;2023-02-01T04:23:31;18.58;;;3.90;;
49488;SDS011;35382;51.484;11.476;2023-02-01T04:25:12;17.13;;;3.85;;
49488;SDS011;35382;51.484;11.476;2023-02-01T04:26:53;17.98;;;4.22;;
49488;SDS011;35382;51.484;11.476;2023-02-01T04:28:34;14.05;;;3.20;;
49488;SDS011;35382;51.484;11.476;2023-02-01T04:30:15;18.83;;;3.67;;
49488;SDS011;35382;51.484;11.476;2023-02-01T04:31:56;11.98;;;3.55;;
49488;SDS011;35382;51.484;11.476;2023-02-01T04:33:37;11.60;;;3.38;;
49488;SDS011;35382;51.484;11.476;2023-02-01T04:35:18;19.75;;;3.90;;
49488;SDS011;35382;51.484;11.476;2023-02-01T04:36:59;13.27;;;3.65;;
49488;SDS011;35382;51.484;11.476;2023-02-01T04:38:40;11.02;;;3.42;;
49488;SDS011;35382;51.484;11.476;2023-02-01T04:40:21;14.90;;;3.25;;
49488;SDS011;35382;51.484;11.476;2023-02-01T04:42:02;12.07;;;3.50;;
49488;SDS011;35382;51.484;11.476;2023-02-01T04:43:43;14.77;;;4.10;;
49488;SDS011;35382;51.484;11.476;2023-02-01T04:45:23;17.33;;;3.90;;
49488;SDS011;35382;51.484;11.476;2023-02-01T04:47:04;14.18;;;3.60;;
49488;SDS011;35382;51.484;11.476;2023-02-01T04:48:46;18.25;;;4.38;;
49488;SDS011;35382;51.484;11.476;2023-02-01T04:50:27;17.55;;;3.92;;
49488;SDS011;35382;51.484;11.476;2023-02-01T04:52:07;15.85;;;3.72;;
49488;SDS011;35382;51.484;11.476;2023-02-01T04:53:48;18.30;;;3.90;;
49488;SDS011;35382;51.484;11.476;2023-02-01T04:55:32;20.10;;;4.65;;
49488;SDS011;35382;51.484;11.476;2023-02-01T04:57:13;19.92;;;4.93;;
49488;SDS011;35382;51.484;11.476;2023-02-01T04:58:55;21.30;;;6.20;;
49488;SDS011;35382;51.484;11.476;2023-02-01T05:00:37;14.32;;;3.90;;
49488;SDS011;35382;51.484;11.476;2023-02-01T05:02:18;15.75;;;4.18;;
49488;SDS011;35382;51.484;11.476;2023-02-01T05:03:59;18.52;;;4.53;;
49488;SDS011;35382;51.484;11.476;2023-02-01T05:05:40;16.17;;;4.82;;
49488;SDS011;35382;51.484;11.476;2023-02-01T05:07:23;18.77;;;4.47;;
49488;SDS011;35382;51.484;11.476;2023-02-01T05:09:04;15.13;;;4.68;;
49488;SDS011;35382;51.484;11.476;2023-02-01T05:10:45;16.83;;;4.28;;
49488;SDS011;35382;51.484;11.476;2023-02-01T05:12:26;17.67;;;3.47;;
49488;SDS011;35382;51.484;11.476;2023-02-01T05:14:26;21.17;;;4.57;;
49488;SDS011;35382;51.484;11.476;2023-02-01T05:16:07;14.52;;;3.92;;
49488;SDS011;35382;51.484;11.476;2023-02-01T05:17:47;18.67;;;4.15;;
49488;SDS011;35382;51.484;11.476;2023-02-01T05:19:28;14.18;;;4.05;;
49488;SDS011;35382;51.484;11.476;2023-02-01T05:21:09;21.77;;;4.32;;
49488;SDS011;35382;51.484;11.476;2023-02-01T05:22:50;13.63;;;4.00;;
49488;SDS011;35382;51.484;11.476;2023-02-01T05:24:32;16.52;;;4.13;;
49488;SDS011;35382;51.484;11.476;2023-02-01T05:26:13;19.58;;;4.80;;
49488;SDS011;35382;51.484;11.476;2023-02-01T05:27:55;21.15;;;4.68;;
49488;SDS011;35382;51.484;11.476;2023-02-01T05:29:36;17.40;;;4.60;;
49488;SDS011;35382;51.484;11.476;2023-02-01T05:31:16;20.35;;;4.80;;
49488;SDS011;35382;51.484;11.476;2023-02-01T05:32:57;21.40;;;4.68;;
49488;SDS011;35382;51.484;11.476;2023-02-01T05:34:38;19.33;;;4.85;;
49488;SDS011;35382;51.484;11.476;2023-02-01T05:36:19;17.02;;;4.80;;
49488;SDS011;35382;51.484;11.476;2023-02-01T05:38:00;21.88;;;5.28;;
49488;SDS011;35382;51.484;11.476;2023-02-01T05:39:43;12.00;;;4.38;;
49488;SDS011;35382;51.484;11.476;2023-02-01T05:41:24;16.65;;;4.65;;
49488;SDS011;35382;51.484;11.476;2023-02-01T05:43:05;17.17;;;4.55;;
49488;SDS011;35382;51.484;11.476;2023-02-01T05:44:46;21.67;;;5.00;;
49488;SDS011;35382;51.484;11.476;2023-02-01T05:46:27;19.25;;;5.15;;
49488;SDS011;35382;51.484;11.476;2023-02-01T05:48:08;23.63;;;4.60;;
49488;SDS011;35382;51.484;11.476;2023-02-01T05:49:49;15.45;;;3.80;;
49488;SDS011;35382;51.484;11.476;2023-02-01T05:51:30;15.82;;;4.13;;
49488;SDS011;35382;51.484;11.476;2023-02-01T05:53:12;14.00;;;3.75;;
49488;SDS011;35382;51.484;11.476;2023-02-01T05:54:53;17.60;;;3.90;;
49488;SDS011;35382;51.484;11.476;2023-02-01T05:56:36;18.00;;;3.45;;
49488;SDS011;35382;51.484;11.476;2023-02-01T05:58:17;21.05;;;5.03;;
49488;SDS011;35382;51.484;11.476;2023-02-01T05:59:58;14.88;;;4.30;;
49488;SDS011;35382;51.484;11.476;2023-02-01T06:01:39;14.60;;;3.30;;
49488;SDS011;35382;51.484;11.476;2023-02-01T06:03:20;18.10;;;4.00;;
49488;SDS011;35382;51.484;11.476;2023-02-01T06:05:01;13.57;;;4.05;;
49488;SDS011;35382;51.484;11.476;2023-02-01T06:06:42;15.57;;;5.38;;
49488;SDS011;35382;51.484;11.476;2023-02-01T06:08:23;15.25;;;3.80;;
49488;SDS011;35382;51.484;11.476;2023-02-01T06:10:10;11.98;;;4.40;;
49488;SDS011;35382;51.484;11.476;2023-02-01T06:11:51;16.73;;;4.43;;
49488;SDS011;35382;51.484;11.476;2023-02-01T06:13:32;15.43;;;3.63;;
49488;SDS011;35382;51.484;11.476;2023-02-01T06:15:13;12.73;;;4.28;;
49488;SDS011;35382;51.484;11.476;2023-02-01T06:16:56;14.60;;;4.63;;
49488;SDS011;35382;51.484;11.476;2023-02-01T06:18:37;13.50;;;4.07;;
49488;SDS011;35382;51.484;11.476;2023-02-01T06:20:18;18.63;;;3.70;;
49488;SDS011;35382;51.484;11.476;2023-02-01T06:21:59;18.33;;;4.50;;
49488;SDS011;35382;51.484;11.476;2023-02-01T06:23:40;15.40;;;3.83;;
49488;SDS011;35382;51.484;11.476;2023-02-01T06:25:21;14.20;;;4.90;;
49488;SDS011;35382;51.484;11.476;2023-02-01T06:27:02;12.65;;;4.78;;
49488;SDS011;35382;51.484;11.476;2023-02-01T06:28:45;15.60;;;3.83;;
49488;SDS011;35382;51.484;11.476;2023-02-01T06:30:26;18.15;;;4.57;;
49488;SDS011;35382;51.484;11.476;2023-02-01T06:32:07;12.25;;;3.88;;
49488;SDS011;35382;51.484;11.476;2023-02-01T06:33:48;17.15;;;4.05;;
49488;SDS011;35382;51.484;11.476;2023-02-01T06:35:30;14.98;;;3.80;;
49488;SDS011;35382;51.484;11.476;2023-02-01T06:37:10;13.25;;;4.07;;
49488;SDS011;35382;51.484;11.476;2023-02-01T06:38:52;12.90;;;4.10;;
49488;SDS011;35382;51.484;11.476;2023-02-01T06:40:32;19.60;;;4.47;;
49488;SDS011;35382;51.484;11.476;2023-02-01T06:42:13;15.43;;;3.53;;
49488;SDS011;35382;51.484;11.476;2023-02-01T06:43:55;15.93;;;3.58;;
49488;SDS011;35382;51.484;11.476;2023-02-01T06:45:38;14.45;;;4.30;;
49488;SDS011;35382;51.484;11.476;2023-02-01T06:47:19;20.38;;;4.30;;
49488;SDS011;35382;51.484;11.476;2023-02-01T06:49:00;17.15;;;4.03;;
49488;SDS011;35382;51.484;11.476;2023-02-01T06:50:41;11.75;;;4.10;;
49488;SDS011;35382;51.484;11.476;2023-02-01T06:52:22;11.63;;;3.60;;
49488;SDS011;35382;51.484;11.476;2023-02-01T06:54:03;13.38;;;3.63;;
49488;SDS011;35382;51.484;11.476;2023-02-01T06:57:38;12.90;;;4.43;;
49488;SDS011;35382;51.484;11.476;2023-02-01T06:59:19;16.25;;;4.47;;
49488;SDS011;35382;51.484;11.476;2023-02-01T07:01:06;22.90;;;5.15;;
49488;SDS011;35382;51.484;11.476;2023-02-01T07:02:49;15.60;;;4.05;;
49488;SDS011;35382;51.484;11.476;2023-02-01T07:04:30;16.35;;;5.53;;
49488;SDS011;35382;51.484;11.476;2023-02-01T07:06:11;15.20;;;4.38;;
49488;SDS011;35382;51.484;11.476;2023-02-01T07:07:52;13.75;;;4.55;;
49488;SDS011;35382;51.484;11.476;2023-02-01T07:09:33;18.35;;;4.72;;
49488;SDS011;35382;51.484;11.476;2023-02-01T07:11:15;15.80;;;4.38;;
49488;SDS011;35382;51.484;11.476;2023-02-01T07:12:57;14.68;;;3.88;;
49488;SDS011;35382;51.484;11.476;2023-02-01T07:14:38;15.38;;;4.38;;
49488;SDS011;35382;51.484;11.476;2023-02-01T07:16:19;17.20;;;4.40;;
49488;SDS011;35382;51.484;11.476;2023-02-01T07:18:01;12.25;;;3.92;;
49488;SDS011;35382;51.484;11.476;2023-02-01T07:19:42;11.00;;;3.90;;
49488;SDS011;35382;51.484;11.476;2023-02-01T07:21:25;16.58;;;4.78;;
49488;SDS011;35382;51.484;11.476;2023-02-01T07:23:09;13.50;;;4.68;;
49488;SDS011;35382;51.484;11.476;2023-02-01T07:24:50;12.27;;;3.88;;
49488;SDS011;35382;51.484;11.476;2023-02-01T07:26:31;18.10;;;4.93;;
49488;SDS011;35382;51.484;11.476;2023-02-01T07:28:13;11.45;;;3.38;;
49488;SDS011;35382;51.484;11.476;2023-02-01T07:29:54;15.75;;;4.95;;
49488;SDS011;35382;51.484;11.476;2023-02-01T07:31:36;13.10;;;4.30;;
49488;SDS011;35382;51.484;11.476;2023-02-01T07:33:21;10.63;;;3.83;;
49488;SDS011;35382;51.484;11.476;2023-02-01T07:35:03;14.40;;;4.68;;
49488;SDS011;35382;51.484;11.476;2023-02-01T07:36:46;13.10;;;4.53;;
49488;SDS011;35382;51.484;11.476;2023-02-01T07:38:27;16.00;;;4.50;;
49488;SDS011;35382;51.484;11.476;2023-02-01T07:40:09;14.38;;;4.35;;
49488;SDS011;35382;51.484;11.476;2023-02-01T07:41:50;8.55;;;3.75;;
49488;SDS011;35382;51.484;11.476;2023-02-01T07:43:32;12.75;;;4.57;;
49488;SDS011;35382;51.484;11.476;2023-02-01T07:45:13;11.68;;;4.57;;
49488;SDS011;35382;51.484;11.476;2023-02-01T07:46:55;13.68;;;5.13;;
49488;SDS011;35382;51.484;11.476;2023-02-01T07:48:36;15.98;;;5.53;;
49488;SDS011;35382;51.484;11.476;2023-02-01T07:50:17;18.50;;;5.65;;
49488;SDS011;35382;51.484;11.476;2023-02-01T07:51:58;15.90;;;4.97;;
49488;SDS011;35382;51.484;11.476;2023-02-01T07:53:40;12.75;;;4.38;;
49488;SDS011;35382;51.484;11.476;2023-02-01T07:55:23;15.27;;;5.65;;
49488;SDS011;35382;51.484;11.476;2023-02-01T07:57:05;20.00;;;6.82;;
49488;SDS011;35382;51.484;11.476;2023-02-01T07:58:49;13.20;;;5.43;;
49488;SDS011;35382;51.484;11.476;2023-02-01T08:00:31;14.43;;;4.55;;
49488;SDS011;35382;51.484;11.476;2023-02-01T08:02:31;8.00;;;3.60;;
49488;SDS011;35382;51.484;11.476;2023-02-01T08:04:12;9.18;;;3.83;;
49488;SDS011;35382;51.484;11.476;2023-02-01T08:05:53;14.50;;;4.63;;
49488;SDS011;35382;51.484;11.476;2023-02-01T08:07:35;11.10;;;4.15;;
49488;SDS011;35382;51.484;11.476;2023-02-01T08:09:16;11.57;;;4.82;;
49488;SDS011;35382;51.484;11.476;2023-02-01T08:10:58;12.77;;;4.25;;
49488;SDS011;35382;51.484;11.476;2023-02-01T08:12:40;15.52;;;5.25;;
49488;SDS011;35382;51.484;11.476;2023-02-01T08:14:21;11.68;;;4.78;;
49488;SDS011;35382;51.484;11.476;2023-02-01T08:16:03;15.40;;;5.43;;
49488;SDS011;35382;51.484;11.476;2023-02-01T08:17:46;14.02;;;6.00;;
49488;SDS011;35382;51.484;11.476;2023-02-01T08:19:28;17.25;;;6.53;;
49488;SDS011;35382;51.484;11.476;2023-02-01T08:21:11;15.43;;;6.90;;
49488;SDS011;35382;51.484;11.476;2023-02-01T08:22:54;16.60;;;6.53;;
49488;SDS011;35382;51.484;11.476;2023-02-01T08:24:35;16.75;;;6.93;;
49488;SDS011;35382;51.484;11.476;2023-02-01T08:26:25;20.00;;;7.38;;
49488;SDS011;35382;51.484;11.476;2023-02-01T08:28:06;18.42;;;7.20;;
49488;SDS011;35382;51.484;11.476;2023-02-01T08:29:48;14.55;;;7.78;;
49488;SDS011;35382;51.484;11.476;2023-02-01T08:31:29;22.42;;;8.45;;
49488;SDS011;35382;51.484;11.476;2023-02-01T08:33:10;22.63;;;8.77;;
49488;SDS011;35382;51.484;11.476;2023-02-01T08:34:52;17.48;;;7.70;;
49488;SDS011;35382;51.484;11.476;2023-02-01T08:36:33;18.83;;;8.18;;
49488;SDS011;35382;51.484;11.476;2023-02-01T08:38:14;18.40;;;7.47;;
49488;SDS011;35382;51.484;11.476;2023-02-01T08:39:55;15.88;;;8.43;;
49488;SDS011;35382;51.484;11.476;2023-02-01T08:41:36;20.73;;;8.02;;
49488;SDS011;35382;51.484;11.476;2023-02-01T08:43:18;19.20;;;8.05;;
49488;SDS011;35382;51.484;11.476;2023-02-01T08:44:59;19.98;;;8.13;;
49488;SDS011;35382;51.484;11.476;2023-02-01T08:46:42;24.63;;;8.85;;
49488;SDS011;35382;51.484;11.476;2023-02-01T08:48:23;23.65;;;8.35;;
49488;SDS011;35382;51.484;11.476;2023-02-01T08:50:04;18.85;;;7.47;;
49488;SDS011;35382;51.484;11.476;2023-02-01T08:51:46;19.95;;;7.47;;
49488;SDS011;35382;51.484;11.476;2023-02-01T08:53:26;22.42;;;8.77;;
49488;SDS011;35382;51.484;11.476;2023-02-01T08:55:08;23.60;;;7.82;;
49488;SDS011;35382;51.484;11.476;2023-02-01T08:56:49;22.83;;;7.70;;
49488;SDS011;35382;51.484;11.476;2023-02-01T08:58:30;18.70;;;7.47;;
49488;SDS011;35382;51.484;11.476;2023-02-01T09:00:11;16.98;;;7.50;;
49488;SDS011;35382;51.484;11.476;2023-02-01T09:01:55;19.05;;;8.07;;
49488;SDS011;35382;51.484;11.476;2023-02-01T09:03:36;16.63;;;6.70;;
49488;SDS011;35382;51.484;11.476;2023-02-01T09:05:17;20.77;;;8.10;;
49488;SDS011;35382;51.484;11.476;2023-02-01T09:07:02;22.23;;;8.00;;
49488;SDS011;35382;51.484;11.476;2023-02-01T09:08:43;22.25;;;8.18;;
49488;SDS011;35382;51.484;11.476;2023-02-01T09:10:24;15.10;;;7.15;;
49488;SDS011;35382;51.484;11.476;2023-02-01T09:12:06;21.33;;;7.47;;
49488;SDS011;35382;51.484;11.476;2023-02-01T09:13:47;14.48;;;5.78;;
49488;SDS011;35382;51.484;11.476;2023-02-01T09:15:29;13.82;;;5.82;;
49488;SDS011;35382;51.484;11.476;2023-02-01T09:17:10;15.50;;;5.70;;
49488;SDS011;35382;51.484;11.476;2023-02-01T09:18:50;16.85;;;6.13;;
49488;SDS011;35382;51.484;11.476;2023-02-01T09:20:31;13.88;;;6.63;;
49488;SDS011;35382;51.484;11.476;2023-02-01T09:22:13;14.75;;;7.22;;
49488;SDS011;35382;51.484;11.476;2023-02-01T09:23:55;15.68;;;5.90;;
49488;SDS011;35382;51.484;11.476;2023-02-01T09:25:36;14.73;;;5.93;;
49488;SDS011;35382;51.484;11.476;2023-02-01T09:27:18;12.55;;;5.35;;
49488;SDS011;35382;51.484;11.476;2023-02-01T09:28:59;11.77;;;5.25;;
49488;SDS011;35382;51.484;11.476;2023-02-01T09:30:40;17.15;;;6.43;;
49488;SDS011;35382;51.484;11.476;2023-02-01T09:32:22;19.67;;;5.72;;
49488;SDS011;35382;51.484;11.476;2023-02-01T09:34:04;10.85;;;5.22;;
49488;SDS011;35382;51.484;11.476;2023-02-01T09:35:45;14.88;;;5.68;;
49488;SDS011;35382;51.484;11.476;2023-02-01T09:37:26;13.20;;;5.38;;
49488;SDS011;35382;51.484;11.476;2023-02-01T09:39:07;15.20;;;5.72;;
49488;SDS011;35382;51.484;11.476;2023-02-01T09:40:47;11.07;;;4.80;;
49488;SDS011;35382;51.484;11.476;2023-02-01T09:46:30;15.52;;;4.78;;
49488;SDS011;35382;51.484;11.476;2023-02-01T09:48:15;17.10;;;5.50;;
49488;SDS011;35382;51.484;11.476;2023-02-01T09:51:42;13.57;;;4.93;;
49488;SDS011;35382;51.484;11.476;2023-02-01T09:53:27;13.50;;;4.80;;
49488;SDS011;35382;51.484;11.476;2023-02-01T09:55:59;10.40;;;3.95;;
49488;SDS011;35382;51.484;11.476;2023-02-01T09:59:43;21.52;;;5.30;;
49488;SDS011;35382;51.484;11.476;2023-02-01T10:01:28;14.80;;;4.82;;
49488;SDS011;35382;51.484;11.476;2023-02-01T10:03:12;12.52;;;4.43;;
49488;SDS011;35382;51.484;11.476;2023-02-01T10:04:58;12.55;;;4.40;;
49488;SDS011;35382;51.484;11.476;2023-02-01T10:10:35;11.30;;;3.35;;
49488;SDS011;35382;51.484;11.476;2023-02-01T10:12:33;12.50;;;4.47;;
49488;SDS011;35382;51.484;11.476;2023-02-01T10:16:07;10.25;;;3.33;;
49488;SDS011;35382;51.484;11.476;2023-02-01T10:19:45;10.95;;;3.75;;
49488;SDS011;35382;51.484;11.476;2023-02-01T10:25:55;11.55;;;3.40;;
49488;SDS011;35382;51.484;11.476;2023-02-01T10:27:42;15.13;;;4.30;;
49488;SDS011;35382;51.484;11.476;2023-02-01T10:29:24;13.25;;;3.33;;
49488;SDS011;35382;51.484;11.476;2023-02-01T10:31:11;10.98;;;4.00;;
49488;SDS011;35382;51.484;11.476;2023-02-01T10:32:55;11.32;;;3.30;;
49488;SDS011;35382;51.484;11.476;2023-02-01T10:34:37;13.63;;;3.45;;
49488;SDS011;35382;51.484;11.476;2023-02-01T10:36:22;15.90;;;4.15;;
49488;SDS011;35382;51.484;11.476;2023-02-01T10:38:07;5.97;;;3.15;;
49488;SDS011;35382;51.484;11.476;2023-02-01T10:40:02;11.10;;;3.75;;
49488;SDS011;35382;51.484;11.476;2023-02-01T10:42:10;8.02;;;3.30;;
49488;SDS011;35382;51.484;11.476;2023-02-01T10:43:53;11.93;;;3.83;;
49488;SDS011;35382;51.484;11.476;2023-02-01T10:45:37;11.93;;;3.80;;
49488;SDS011;35382;51.484;11.476;2023-02-01T10:47:20;16.85;;;4.13;;
49488;SDS011;35382;51.484;11.476;2023-02-01T10:49:02;14.32;;;4.75;;
49488;SDS011;35382;51.484;11.476;2023-02-01T10:50:53;12.88;;;4.32;;
49488;SDS011;35382;51.484;11.476;2023-02-01T10:52:40;12.90;;;4.07;;